Pelham, Massachusetts
Current Conditions -  °F | °C
As of 8:58 AM on Friday 24 Oct 2014 (Local Time) from KCEF Reporting Station
Broken Clouds Broken Clouds  
Wind Chill: 44°   Ceiling: 5000
Heat Index: 47°   Visibility: 10mi
Dew Point: 45°   Wind: 6mph
Humidity: 92%   Direction: 350°N
Pressure: 29.76"   Gusts: NA
Location:  42.3773°N, 72.4671°W
Report Text: KCEF 241258Z AUTO 35005KT 10SM SCT045 BKN050 08/07 A2976 RMK AO2 RAE1214DZB1214E1220 SLP084 P0001 T00830070
Loading
Personal Weather Stations






























Interactive Weather Map
Tropical Storm Tracking
New forecast layout! Learn more

10-Day Weather Forecast

Advertisements
Track Severe Weather on mobile